Time;durP1;ratioP1;P1;durP2;ratioP2;P2;SDS_P1;SDS_P2;PMS_P1;PMS_P2;Temp;Humidity;BMP_temperature;BMP_pressure;BME280_temperature;BME280_humidity;BME280_pressure;Samples;Min_cycle;Max_cycle;Signal;HPM_P1;HPM_P2
2022/10/04 00:00:24;;;;;;;4.43;3.77;;;7.40;99.90;;;8.19;100.00;98921.19;5000412;28;20544;-84
2022/10/04 00:03:02;;;;;;;11.63;3.63;;;7.30;99.90;;;8.15;100.00;98926.88;5018370;28;20497;-84
2022/10/04 00:05:32;;;;;;;7.87;4.27;;;7.20;99.90;;;8.14;100.00;98926.06;5018746;28;20465;-84
2022/10/04 00:08:18;;;;;;;8.90;4.07;;;7.20;99.90;;;8.16;100.00;98926.72;5018812;28;20503;-83
2022/10/04 00:10:48;;;;;;;5.70;3.77;;;7.20;99.90;;;8.13;100.00;98927.00;5019750;28;20598;-83
2022/10/04 00:13:25;;;;;;;7.60;4.40;;;7.20;99.90;;;8.12;100.00;98930.59;5020664;28;20556;-84
2022/10/04 00:15:53;;;;;;;5.40;3.93;;;7.20;99.90;;;8.09;100.00;98923.06;5018972;28;20559;-84
2022/10/04 00:18:32;;;;;;;8.93;4.67;;;7.10;99.90;;;8.00;100.00;98919.59;5019945;28;20469;-84
2022/10/04 00:21:08;;;;;;;7.23;3.70;;;7.10;99.90;;;8.00;100.00;98916.97;5018649;28;20553;-83
2022/10/04 00:23:46;;;;;;;16.67;4.43;;;7.00;99.90;;;7.91;100.00;98911.84;5020832;28;20938;-83
2022/10/04 00:27:09;;;;;;;6.53;3.30;;;7.00;99.90;;;7.91;100.00;98909.25;5032766;28;20992;-84
2022/10/04 00:29:42;;;;;;;9.40;3.87;;;7.00;99.90;;;7.93;100.00;98909.91;5020222;28;20872;-84
2022/10/04 00:32:28;;;;;;;7.00;3.30;;;7.10;99.90;;;7.97;100.00;98909.47;5018602;28;20473;-84
2022/10/04 00:35:00;;;;;;;22.60;4.40;;;7.10;99.90;;;7.86;100.00;98914.06;5020328;28;20565;-84
2022/10/04 00:37:57;;;;;;;7.33;3.40;;;7.00;99.90;;;7.79;100.00;98910.41;5022536;28;20797;-84
2022/10/04 00:40:33;;;;;;;9.63;3.70;;;6.90;99.90;;;7.81;100.00;98901.47;5017232;28;20570;-84
2022/10/04 00:43:09;;;;;;;5.60;3.70;;;6.90;99.90;;;7.81;100.00;98906.69;5016829;28;20585;-84
2022/10/04 00:45:46;;;;;;;7.80;3.63;;;6.90;99.90;;;7.76;100.00;98905.50;5017370;28;20517;-83
2022/10/04 00:48:42;;;;;;;6.00;3.63;;;7.00;99.90;;;7.78;100.00;98906.16;5018876;28;20466;-84
2022/10/04 00:51:25;;;;;;;5.30;3.40;;;6.90;99.90;;;7.71;100.00;98899.91;5018157;28;20493;-83
2022/10/04 00:54:05;;;;;;;7.60;3.60;;;6.80;99.90;;;7.65;100.00;98900.50;5020077;28;20484;-83
2022/10/04 00:56:44;;;;;;;9.70;3.67;;;6.80;99.90;;;7.68;100.00;98900.22;5020998;28;20483;-84
2022/10/04 00:59:36;;;;;;;4.40;3.30;;;6.80;99.90;;;7.73;100.00;98903.22;5019886;28;20557;-83
2022/10/04 01:02:16;;;;;;;6.00;3.90;;;6.80;99.90;;;7.69;100.00;98902.69;5002923;28;20469;-84
2022/10/04 01:04:53;;;;;;;8.37;4.40;;;6.70;99.90;;;7.69;100.00;98896.66;5017313;28;20581;-83
2022/10/04 01:07:32;;;;;;;7.27;3.80;;;6.70;99.90;;;7.58;100.00;98895.91;5018778;28;20540;-83
2022/10/04 01:10:09;;;;;;;9.30;3.73;;;6.70;99.90;;;7.60;100.00;98899.16;5018333;28;20467;-84
2022/10/04 01:12:46;;;;;;;6.30;3.77;;;6.70;99.90;;;7.60;100.00;98888.75;5018513;28;20474;-84
2022/10/04 01:15:27;;;;;;;7.30;3.50;;;6.70;99.90;;;7.60;100.00;98891.34;5017002;28;20473;-84
2022/10/04 01:18:15;;;;;;;5.23;3.80;;;6.70;99.90;;;7.60;100.00;98891.34;5018302;28;20473;-84
2022/10/04 01:20:57;;;;;;;5.07;3.80;;;6.70;99.90;;;7.57;100.00;98883.84;5017347;28;20470;-83
2022/10/04 01:23:42;;;;;;;9.63;3.57;;;6.60;99.90;;;7.53;100.00;98886.91;5018108;28;20577;-84
2022/10/04 01:26:42;;;;;;;7.20;3.23;;;6.80;99.90;;;7.50;100.00;98888.00;5017072;28;20462;-84
2022/10/04 01:29:15;;;;;;;4.80;2.80;;;6.70;99.90;;;7.48;100.00;98879.53;5016135;28;20545;-84
2022/10/04 01:31:48;;;;;;;6.10;3.70;;;6.60;99.90;;;7.47;100.00;98877.88;5013746;28;20541;-84
2022/10/04 01:34:20;;;;;;;9.50;3.23;;;6.50;99.90;;;7.47;100.00;98883.09;5018227;28;20481;-84
2022/10/04 01:36:53;;;;;;;8.90;3.50;;;6.50;99.90;;;7.47;100.00;98872.69;5020281;28;20545;-84
2022/10/04 01:39:27;;;;;;;9.60;3.30;;;6.60;99.90;;;7.47;100.00;98861.47;5021503;28;20462;-83
2022/10/04 01:42:05;;;;;;;6.10;3.90;;;6.60;99.90;;;7.41;100.00;98862.06;5017194;28;20849;-83
2022/10/04 01:44:56;;;;;;;3.90;3.07;;;6.50;99.90;;;7.39;100.00;98864.78;5020468;28;20478;-83
2022/10/04 01:47:33;;;;;;;5.60;4.07;;;6.60;99.90;;;7.40;100.00;98861.22;5018294;28;20442;-84
2022/10/04 01:50:13;;;;;;;4.73;3.47;;;6.60;99.90;;;7.35;100.00;98853.06;5018780;28;20435;-84
2022/10/04 01:52:50;;;;;;;4.67;3.10;;;6.50;99.90;;;7.25;100.00;98851.47;5019596;28;20474;-84
2022/10/04 01:55:28;;;;;;;3.50;3.10;;;6.40;99.90;;;7.25;100.00;98857.50;5019869;28;20457;-82
2022/10/04 01:58:04;;;;;;;10.03;3.60;;;6.40;99.90;;;7.21;100.00;98848.34;5018346;28;20521;-83
2022/10/04 02:00:34;;;;;;;14.83;3.60;;;6.40;99.90;;;7.21;100.00;98842.31;5022149;28;20479;-83
2022/10/04 02:03:11;;;;;;;5.67;3.40;;;6.30;99.90;;;7.15;100.00;98841.09;5021801;28;20446;-83
2022/10/04 02:05:48;;;;;;;5.43;3.57;;;6.20;99.90;;;7.12;100.00;98845.78;5024692;28;20876;-83
2022/10/04 02:08:25;;;;;;;6.03;2.90;;;6.20;99.90;;;7.12;100.00;98833.59;5025252;28;21108;-83
2022/10/04 02:10:59;;;;;;;3.47;3.10;;;6.20;99.90;;;7.04;100.00;98838.72;5023784;28;21028;-84
2022/10/04 02:13:36;;;;;;;5.10;2.90;;;6.20;99.90;;;7.04;100.00;98830.94;5017545;28;20462;-84
2022/10/04 02:16:11;;;;;;;3.80;3.00;;;6.30;99.90;;;7.04;100.00;98828.34;5018637;28;20485;-84
2022/10/04 02:18:43;;;;;;;3.93;2.40;;;6.20;99.90;;;7.05;100.00;98833.38;5017523;28;20517;-83
2022/10/04 02:21:15;;;;;;;6.70;2.77;;;6.20;99.90;;;7.03;100.00;98830.09;5015689;28;20553;-84
2022/10/04 02:23:47;;;;;;;3.03;2.73;;;6.20;99.90;;;6.99;100.00;98826.16;5014474;28;20482;-83
2022/10/04 02:26:18;;;;;;;2.90;2.50;;;6.20;99.90;;;6.91;100.00;98818.25;5019907;28;20465;-83
2022/10/04 02:28:48;;;;;;;6.00;3.07;;;6.10;99.90;;;6.95;100.00;98821.38;5019039;28;20576;-83
2022/10/04 02:34:10;;;;;;;3.90;2.90;;;6.00;99.90;;;6.83;100.00;98819.94;5020855;28;20475;-84
2022/10/04 02:36:39;;;;;;;3.97;3.17;;;6.00;99.90;;;6.81;100.00;98812.28;5023956;28;20449;-83
2022/10/04 02:39:16;;;;;;;3.50;3.00;;;6.00;99.90;;;6.77;100.00;98816.13;5021746;28;20466;-83
2022/10/04 02:41:52;;;;;;;3.23;2.50;;;5.90;99.90;;;6.83;100.00;98815.56;5021242;28;21058;-83
2022/10/04 02:44:28;;;;;;;8.10;2.60;;;6.00;99.90;;;6.84;100.00;98811.16;5022288;28;20577;-82
2022/10/04 02:47:08;;;;;;;4.70;2.97;;;6.00;99.90;;;6.88;100.00;98807.31;5020820;28;20565;-82
2022/10/04 02:49:48;;;;;;;2.53;2.33;;;5.90;99.90;;;6.89;100.00;98812.41;5021451;28;20534;-84
2022/10/04 02:52:45;;;;;;;4.77;2.90;;;6.00;99.90;;;6.90;100.00;98803.63;5022019;28;21271;-84
2022/10/04 02:55:22;;;;;;;3.83;2.53;;;6.10;99.90;;;6.91;100.00;98801.84;5023215;28;20453;-83
2022/10/04 02:57:53;;;;;;;8.00;2.70;;;6.10;99.90;;;6.85;100.00;98803.25;5021005;28;21470;-83
2022/10/04 03:00:27;;;;;;;23.93;2.80;;;6.00;99.90;;;6.89;100.00;98803.78;5018623;28;20557;-83
2022/10/04 03:03:22;;;;;;;2.73;2.27;;;6.00;99.90;;;6.92;100.00;98806.91;5023399;28;20938;-83
2022/10/04 03:06:02;;;;;;;5.90;2.77;;;6.10;99.90;;;6.90;100.00;98808.00;5020166;28;20573;-84
2022/10/04 03:08:36;;;;;;;6.13;2.50;;;6.10;99.90;;;6.89;100.00;98808.97;5021489;28;20454;-83
2022/10/04 03:11:08;;;;;;;4.03;2.47;;;6.10;99.90;;;6.89;100.00;98803.78;5022053;28;20552;-87
2022/10/04 03:13:41;;;;;;;2.67;2.20;;;6.10;99.90;;;6.87;100.00;98801.31;5020640;28;20779;-84
2022/10/04 03:16:10;;;;;;;2.53;2.33;;;6.10;99.90;;;6.88;100.00;98802.13;5018568;28;20570;-83
2022/10/04 03:18:40;;;;;;;7.10;3.10;;;6.10;99.90;;;6.81;100.00;98806.25;5018358;28;21445;-83
2022/10/04 03:21:15;;;;;;;6.47;3.03;;;6.10;99.90;;;6.81;100.00;98804.50;5020392;28;20491;-83
2022/10/04 03:23:48;;;;;;;6.27;2.97;;;5.90;99.90;;;6.79;100.00;98805.59;5022435;28;20549;-85
2022/10/04 03:26:31;;;;;;;12.23;2.50;;;5.90;99.90;;;6.80;100.00;98805.47;5016969;28;20503;-83
2022/10/04 03:29:06;;;;;;;3.20;2.37;;;5.90;99.90;;;6.83;100.00;98812.16;5000848;28;20512;-83
2022/10/04 03:31:41;;;;;;;3.13;2.27;;;5.80;99.90;;;6.83;100.00;98804.34;5021259;28;20480;-83
2022/10/04 03:34:17;;;;;;;2.60;2.40;;;6.00;99.90;;;6.83;100.00;98809.56;5023614;28;20505;-83
2022/10/04 03:36:48;;;;;;;5.57;3.40;;;5.90;99.90;;;6.81;100.00;98806.25;5021348;28;20445;-82
2022/10/04 03:39:29;;;;;;;4.70;2.23;;;6.00;99.90;;;6.82;100.00;98802.72;5019306;28;21033;-83
2022/10/04 03:41:59;;;;;;;5.20;2.80;;;6.00;99.90;;;6.83;100.00;98804.34;5035780;28;20971;-83
2022/10/04 03:44:31;;;;;;;5.77;2.63;;;6.00;99.90;;;6.80;100.00;98804.66;5022484;28;20475;-83
2022/10/04 03:47:01;;;;;;;8.63;2.70;;;6.00;99.90;;;6.72;100.00;98794.97;5018897;28;20555;-84
2022/10/04 03:49:36;;;;;;;2.33;2.13;;;6.10;99.90;;;6.74;100.00;98803.44;5021257;28;20466;-83
2022/10/04 03:52:12;;;;;;;4.43;2.27;;;6.00;99.90;;;6.75;100.00;98807.69;5017727;28;20483;-85
2022/10/04 03:54:42;;;;;;;4.13;2.53;;;5.90;99.90;;;6.75;100.00;98812.03;5018720;28;20466;-84
2022/10/04 03:57:13;;;;;;;3.87;2.40;;;6.00;99.90;;;6.78;100.00;98803.97;5019505;28;20533;-84
2022/10/04 03:59:43;;;;;;;6.30;2.90;;;6.00;99.90;;;6.79;100.00;98813.41;5020768;28;20494;-84
2022/10/04 04:02:28;;;;;;;4.20;2.73;;;6.00;99.90;;;6.81;100.00;98814.06;5016825;28;20485;-80
2022/10/04 04:05:10;;;;;;;9.80;4.27;;;6.00;99.90;;;6.81;100.00;98814.06;5020331;28;20616;-84
2022/10/04 04:07:46;;;;;;;6.60;2.70;;;6.00;99.90;;;6.78;100.00;98812.59;5016664;28;20462;-83
2022/10/04 04:10:24;;;;;;;4.20;2.43;;;6.00;99.90;;;6.78;100.00;98807.38;5005780;28;20557;-83
2022/10/04 04:12:59;;;;;;;3.17;2.60;;;6.00;99.90;;;6.77;100.00;98800.53;5018602;28;20534;-84
2022/10/04 04:15:34;;;;;;;3.57;2.13;;;5.90;99.90;;;6.77;100.00;98800.53;5017209;28;20468;-83
2022/10/04 04:18:07;;;;;;;4.93;2.30;;;5.90;99.90;;;6.76;100.00;98813.69;5017661;28;20461;-83
2022/10/04 04:20:39;;;;;;;2.60;2.37;;;5.90;99.90;;;6.77;100.00;98810.13;5019860;28;20546;-84
2022/10/04 04:23:26;;;;;;;8.83;3.13;;;5.80;99.90;;;6.73;100.00;98793.19;5005601;28;20466;-84
2022/10/04 04:26:00;;;;;;;4.90;3.30;;;6.00;99.90;;;6.75;100.00;98797.28;5015204;28;20509;-83
2022/10/04 04:28:40;;;;;;;4.43;2.60;;;6.00;99.90;;;6.78;100.00;98796.16;5019393;28;20553;-83
2022/10/04 04:31:20;;;;;;;6.47;2.33;;;6.00;99.90;;;6.73;100.00;98798.41;5016391;28;20557;-83
2022/10/04 04:33:59;;;;;;;4.70;3.00;;;6.00;99.90;;;6.69;100.00;98797.84;5019306;28;20919;-78
2022/10/04 04:36:31;;;;;;;4.97;3.40;;;6.10;99.90;;;6.68;100.00;98795.41;5018579;28;20474;-81
2022/10/04 04:42:00;;;;;;;3.63;2.87;;;6.00;99.90;;;6.70;100.00;98796.09;5019470;28;20487;-81
2022/10/04 04:44:30;;;;;;;3.40;2.70;;;5.90;99.90;;;6.60;100.00;98777.91;5020884;28;21020;-81
2022/10/04 04:47:00;;;;;;;6.03;3.30;;;5.90;99.90;;;6.58;100.00;98788.47;5021221;28;20501;-80
2022/10/04 04:49:31;;;;;;;3.90;2.70;;;5.80;99.90;;;6.59;100.00;98782.28;5022338;28;20442;-81
2022/10/04 04:52:01;;;;;;;3.87;2.87;;;5.70;99.90;;;6.58;100.00;98780.69;5022900;28;20469;-81
2022/10/04 04:54:30;;;;;;;4.57;2.60;;;5.80;99.90;;;6.53;100.00;98772.47;5024590;28;20546;-81
2022/10/04 04:56:59;;;;;;;4.30;3.00;;;5.80;99.90;;;6.48;100.00;98771.28;5021000;28;20499;-81
2022/10/04 04:59:28;;;;;;;4.43;3.03;;;5.80;99.90;;;6.45;100.00;98767.19;5021987;28;20481;-80
2022/10/04 05:01:57;;;;;;;10.57;3.47;;;5.60;99.90;;;6.44;100.00;98765.56;5019319;28;20989;-81
2022/10/04 05:04:27;;;;;;;6.57;2.90;;;5.60;99.90;;;6.44;100.00;98772.53;5020379;28;20458;-81
2022/10/04 05:07:05;;;;;;;5.33;2.90;;;5.50;99.90;;;6.42;100.00;98774.47;5020409;28;20589;-81
2022/10/04 05:09:37;;;;;;;4.87;2.90;;;5.70;99.90;;;6.42;100.00;98766.66;5021474;28;20451;-81
2022/10/04 05:12:16;;;;;;;4.20;2.80;;;5.60;99.90;;;6.39;100.00;98769.53;5020271;28;20541;-80
2022/10/04 05:14:51;;;;;;;6.13;3.00;;;5.50;99.90;;;6.27;100.00;98763.72;5024144;28;20451;-81
2022/10/04 05:17:26;;;;;;;6.50;2.93;;;5.50;99.90;;;6.34;100.00;98769.16;5022339;28;20465;-81
2022/10/04 05:20:01;;;;;;;3.93;3.00;;;5.60;99.90;;;6.38;100.00;98771.31;5024476;28;20446;-81
2022/10/04 05:22:33;;;;;;;4.60;3.10;;;5.50;99.90;;;6.36;100.00;98777.59;5023826;28;21423;-81
2022/10/04 05:25:09;;;;;;;4.00;2.40;;;5.60;99.90;;;6.34;100.00;98776.94;5023367;28;20454;-81
2022/10/04 05:27:43;;;;;;;6.63;3.90;;;5.70;99.90;;;6.31;100.00;98778.06;5023921;28;20460;-80
2022/10/04 05:30:32;;;;;;;6.50;3.10;;;5.60;99.90;;;6.26;100.00;98769.84;5024058;28;20499;-81
2022/10/04 05:33:05;;;;;;;14.97;3.20;;;5.60;99.90;;;6.27;100.00;98781.88;5021756;28;20961;-81
2022/10/04 05:35:54;;;;;;;5.90;3.23;;;5.50;99.90;;;6.27;100.00;98789.69;5022448;28;20529;-81
2022/10/04 05:38:37;;;;;;;9.40;3.30;;;5.50;99.90;;;6.19;100.00;98784.38;5020626;28;20479;-81
2022/10/04 05:41:16;;;;;;;7.83;4.37;;;5.60;99.90;;;6.19;100.00;98786.97;5018717;28;20489;-81
2022/10/04 05:43:48;;;;;;;4.83;3.20;;;5.50;99.90;;;6.19;100.00;98786.97;5019905;28;20537;-80
2022/10/04 05:46:25;;;;;;;6.70;3.00;;;5.40;99.90;;;6.19;100.00;98788.72;5020007;28;20581;-81
2022/10/04 05:48:59;;;;;;;5.83;3.40;;;5.40;99.90;;;6.20;100.00;98780.00;5020392;28;20533;-81
2022/10/04 05:51:36;;;;;;;3.90;3.10;;;5.40;99.90;;;6.11;100.00;98781.63;5021046;28;20871;-81
2022/10/04 05:54:09;;;;;;;5.13;3.40;;;5.50;99.90;;;6.07;100.00;98769.94;5022172;28;20473;-80
2022/10/04 05:57:16;;;;;;;4.57;3.20;;;5.40;99.90;;;6.09;100.00;98768.00;5020400;28;20529;-81
2022/10/04 06:00:14;;;;;;;4.03;3.30;;;5.40;99.90;;;6.14;100.00;98778.78;5017154;28;20532;-81
2022/10/04 06:03:29;;;;;;;9.10;3.50;;;5.30;99.90;;;6.14;100.00;98776.19;5020942;28;20561;-81
2022/10/04 06:06:05;;;;;;;15.10;4.33;;;5.40;99.90;;;6.14;100.00;98780.56;5012529;28;20592;-81
2022/10/04 06:08:53;;;;;;;5.43;3.87;;;5.50;99.90;;;6.08;100.00;98784.53;5025097;28;20509;-81
2022/10/04 06:11:42;;;;;;;8.43;4.30;;;5.60;99.90;;;6.05;100.00;98782.22;5025730;28;20449;-80
2022/10/04 06:14:59;;;;;;;5.13;3.47;;;5.50;99.90;;;6.10;100.00;98784.41;5024995;28;20461;-81
2022/10/04 06:18:02;;;;;;;5.27;3.40;;;5.50;99.90;;;6.13;100.00;98778.91;5026312;28;20482;-80
2022/10/04 06:21:06;;;;;;;5.27;3.57;;;5.40;99.90;;;6.07;100.00;98788.88;5024199;28;21023;-80
2022/10/04 06:23:46;;;;;;;4.43;2.73;;;5.40;99.90;;;6.06;100.00;98789.03;5024771;28;20487;-81
2022/10/04 06:26:23;;;;;;;3.57;3.20;;;5.50;99.90;;;6.11;100.00;98796.44;5025096;28;20592;-81
2022/10/04 06:28:59;;;;;;;8.47;3.60;;;5.60;99.90;;;6.10;100.00;98799.97;5023635;28;20453;-81
2022/10/04 06:32:14;;;;;;;23.00;3.60;;;5.60;99.90;;;6.10;100.00;98800.78;5024435;28;20473;-81
2022/10/04 06:35:48;;;;;;;6.43;4.23;;;5.70;99.90;;;6.13;100.00;98808.31;5028353;28;20474;-81
2022/10/04 06:39:18;;;;;;;12.20;4.07;;;5.40;99.90;;;6.13;100.00;98804.88;5028090;28;20855;-81
2022/10/04 06:42:21;;;;;;;7.33;3.87;;;5.40;99.90;;;6.15;100.00;98792.56;5004587;28;20940;-81
2022/10/04 06:45:28;;;;;;;6.97;3.73;;;5.50;99.90;;;6.15;100.00;98793.38;5007141;28;20494;-80
2022/10/04 06:48:43;;;;;;;7.07;3.80;;;5.40;99.90;;;6.14;100.00;98794.38;5028769;28;20493;-81
2022/10/04 06:51:28;;;;;;;5.20;3.90;;;5.40;99.90;;;6.22;100.00;98786.66;5001634;28;20527;-81
2022/10/04 06:54:13;;;;;;;7.03;4.20;;;5.50;99.90;;;6.28;100.00;98783.50;5022945;28;20509;-81
2022/10/04 06:57:23;;;;;;;6.20;3.90;;;5.50;99.90;;;6.30;100.00;98786.78;5024734;28;20501;-81
2022/10/04 07:00:09;;;;;;;4.57;3.83;;;5.50;99.90;;;6.30;100.00;98786.78;5019842;28;20552;-81
2022/10/04 07:02:47;;;;;;;8.73;3.73;;;5.50;99.90;;;6.35;100.00;98794.97;5022987;28;20476;-81
2022/10/04 07:05:29;;;;;;;3.23;2.80;;;5.50;99.90;;;6.36;100.00;98790.59;5023376;28;20909;-81
2022/10/04 07:08:12;;;;;;;7.70;4.90;;;5.60;99.90;;;6.36;100.00;98807.00;5023851;28;20919;-80
2022/10/04 07:10:52;;;;;;;6.80;4.20;;;5.70;99.90;;;6.39;100.00;98811.09;5023053;28;20454;-81
2022/10/04 07:13:41;;;;;;;6.00;3.77;;;5.80;99.90;;;6.47;100.00;98808.59;5023609;28;20446;-81
2022/10/04 07:16:27;;;;;;;7.73;3.77;;;5.80;99.90;;;6.51;100.00;98809.97;5023102;28;20983;-81
2022/10/04 07:19:31;;;;;;;8.67;4.47;;;5.80;99.90;;;6.57;100.00;98807.59;5023595;28;20458;-81
2022/10/04 07:22:16;;;;;;;6.23;4.53;;;5.80;99.90;;;6.60;100.00;98814.28;5021505;28;20470;-81
2022/10/04 07:25:05;;;;;;;4.23;3.33;;;5.80;99.90;;;6.66;100.00;98810.31;5022737;28;20458;-81
2022/10/04 07:27:47;;;;;;;5.07;3.30;;;5.90;99.90;;;6.66;100.00;98802.53;5023192;28;20573;-81
2022/10/04 07:30:19;;;;;;;10.90;4.03;;;5.90;99.90;;;6.69;100.00;98813.44;5022273;28;20456;-81
2022/10/04 07:32:51;;;;;;;6.70;3.80;;;6.00;99.90;;;6.73;100.00;98825.19;5024109;28;20547;-81
2022/10/04 07:35:34;;;;;;;7.80;3.90;;;6.10;99.90;;;6.76;100.00;98819.72;5024868;28;20565;-80
2022/10/04 07:38:16;;;;;;;5.20;3.90;;;6.00;99.90;;;6.81;100.00;98816.66;5023303;28;20442;-81
2022/10/04 07:41:08;;;;;;;5.20;4.07;;;6.10;99.90;;;6.82;100.00;98820.91;5022001;28;20565;-81
2022/10/04 07:43:49;;;;;;;5.60;3.87;;;6.10;99.90;;;6.87;100.00;98821.31;5025163;28;20486;-80
2022/10/04 07:46:40;;;;;;;6.20;4.07;;;6.20;99.90;;;6.89;100.00;98817.59;5024268;28;20494;-81
2022/10/04 07:49:15;;;;;;;5.97;4.40;;;6.20;99.90;;;6.93;100.00;98812.91;5024392;28;20454;-81
2022/10/04 07:52:12;;;;;;;6.67;4.60;;;6.30;99.90;;;6.97;100.00;98817.69;5022921;28;20461;-81
2022/10/04 07:54:55;;;;;;;6.50;3.73;;;6.30;99.90;;;7.05;100.00;98822.16;5020145;28;20485;-81
2022/10/04 07:57:35;;;;;;;5.23;3.80;;;6.30;99.90;;;7.11;100.00;98813.78;5022869;28;20465;-81
2022/10/04 08:00:15;;;;;;;6.10;4.03;;;6.40;99.90;;;7.15;100.00;98809.09;5024771;28;20449;-80
2022/10/04 08:03:13;;;;;;;8.10;4.70;;;6.40;99.90;;;7.20;100.00;98802.50;5025787;28;20483;-81
2022/10/04 08:05:48;;;;;;;5.37;4.37;;;6.50;99.90;;;7.23;100.00;98797.00;5022286;28;20815;-81
2022/10/04 08:08:46;;;;;;;9.57;4.10;;;6.50;99.90;;;7.27;100.00;98803.53;5022138;28;21675;-81
2022/10/04 08:11:29;;;;;;;8.97;4.20;;;6.60;99.90;;;7.33;100.00;98802.94;5022299;28;21059;-81
2022/10/04 08:14:22;;;;;;;9.43;4.77;;;6.60;99.90;;;7.36;100.00;98800.03;5020419;28;20600;-81
2022/10/04 08:17:13;;;;;;;8.30;5.10;;;6.60;99.90;;;7.45;100.00;98796.56;5021673;28;20553;-81
2022/10/04 08:20:12;;;;;;;6.40;4.30;;;6.70;99.90;;;7.53;100.00;98799.22;5022424;28;21078;-81
2022/10/04 08:23:05;;;;;;;10.30;4.80;;;6.80;99.90;;;7.60;100.00;98800.28;5022789;28;20580;-81
2022/10/04 08:25:49;;;;;;;11.67;4.53;;;6.90;99.90;;;7.68;100.00;98799.53;5021086;28;20438;-81
2022/10/04 08:31:39;;;;;;;18.40;4.67;;;7.10;99.90;;;7.80;100.00;98795.72;5022137;28;20972;-81
2022/10/04 08:34:30;;;;;;;8.83;4.90;;;7.10;99.90;;;7.86;100.00;98789.09;5021488;28;20999;-81
2022/10/04 08:37:24;;;;;;;7.20;4.73;;;7.30;99.90;;;7.93;100.00;98787.53;5022289;28;20477;-81
2022/10/04 08:40:27;;;;;;;9.10;5.60;;;7.30;99.90;;;8.01;100.00;98779.78;5020328;28;20443;-81
2022/10/04 08:43:58;;;;;;;10.50;6.20;;;7.40;99.90;;;8.08;100.00;98779.00;5025177;28;21005;-81
2022/10/04 08:47:06;;;;;;;12.20;5.23;;;7.50;99.90;;;8.20;100.00;98778.72;4994115;28;20564;-80
2022/10/04 08:50:34;;;;;;;7.60;4.70;;;7.60;99.90;;;8.28;100.00;98777.03;5019849;28;20523;-81
2022/10/04 08:53:47;;;;;;;9.50;5.10;;;7.70;99.90;;;8.39;100.00;98781.16;5019894;28;20496;-81
2022/10/04 08:56:31;;;;;;;8.23;5.43;;;7.80;99.90;;;8.48;100.00;98782.84;5021628;28;20473;-81
2022/10/04 08:59:45;;;;;;;8.80;5.77;;;7.90;99.90;;;8.57;100.00;98779.31;5020357;28;20454;-81
2022/10/04 09:02:57;;;;;;;12.00;5.97;;;8.00;99.90;;;8.67;100.00;98779.19;5018643;28;20505;-81
2022/10/04 09:05:54;;;;;;;15.57;5.43;;;8.10;99.90;;;8.74;100.00;98782.81;5024214;28;20473;-80
2022/10/04 09:09:19;;;;;;;29.17;6.70;;;8.20;99.90;;;8.82;100.00;98777.59;5025256;28;20946;-81
2022/10/04 09:12:10;;;;;;;9.63;5.10;;;8.20;99.90;;;8.91;100.00;98781.88;5024259;28;20581;-81
2022/10/04 09:15:06;;;;;;;12.47;5.67;;;8.30;99.90;;;8.97;100.00;98773.41;5026611;28;20489;-80
2022/10/04 09:17:53;;;;;;;23.20;6.33;;;8.40;99.90;;;9.04;100.00;98772.63;5026445;28;20500;-81
2022/10/04 09:20:35;;;;;;;9.53;5.47;;;8.50;99.90;;;9.09;100.00;98769.56;5025653;28;20463;-81
2022/10/04 09:23:36;;;;;;;7.53;5.33;;;8.50;99.90;;;9.16;100.00;98775.78;5026076;28;20462;-80
2022/10/04 09:26:21;;;;;;;9.17;6.33;;;8.60;99.90;;;9.21;100.00;98778.69;5024360;28;20458;-80
2022/10/04 09:29:31;;;;;;;13.43;6.30;;;8.70;99.90;;;9.28;100.00;98779.69;5023949;28;20580;-80
2022/10/04 09:32:56;;;;;;;11.23;5.70;;;8.80;99.90;;;9.36;100.00;98781.50;5022476;28;20508;-81
2022/10/04 09:36:39;;;;;;;12.00;4.33;;;8.80;99.90;;;9.45;100.00;98768.28;5006487;28;20450;-80
2022/10/04 09:39:35;;;;;;;11.30;4.80;;;9.00;99.90;;;9.51;100.00;98764.22;5003429;28;20480;-81
2022/10/04 09:42:37;;;;;;;6.97;4.37;;;9.00;99.90;;;9.58;100.00;98770.41;5030193;28;20919;-80
2022/10/04 09:45:45;;;;;;;8.27;4.80;;;9.10;99.90;;;9.65;100.00;98762.78;5027573;28;20477;-81
2022/10/04 09:48:41;;;;;;;7.37;4.43;;;9.20;99.90;;;9.72;100.00;98761.94;5028029;28;20517;-80
2022/10/04 09:51:54;;;;;;;7.33;4.33;;;9.30;99.90;;;9.80;100.00;98769.78;5023686;28;20469;-81
2022/10/04 09:55:05;;;;;;;6.93;3.80;;;9.30;99.90;;;9.89;100.00;98773.22;5025607;28;20928;-81
2022/10/04 09:57:54;;;;;;;7.37;4.10;;;9.40;99.90;;;9.96;100.00;98768.94;5024955;28;20561;-80
2022/10/04 10:00:26;;;;;;;16.33;3.90;;;9.50;99.90;;;10.01;100.00;98762.25;5025552;28;20481;-80
2022/10/04 10:03:45;;;;;;;5.70;3.43;;;9.60;99.90;;;10.10;100.00;98765.63;5023670;28;20530;-81
2022/10/04 10:06:51;;;;;;;6.30;3.63;;;9.60;99.90;;;10.14;100.00;98759.13;5024012;28;20552;-80
2022/10/04 10:16:11;;;;;;;4.90;3.70;;;9.90;99.90;;;10.36;100.00;98755.00;5023738;28;20447;-80
2022/10/04 10:19:04;;;;;;;7.50;4.13;;;9.90;99.90;;;10.42;100.00;98749.09;5023844;28;20839;-81
2022/10/04 10:21:55;;;;;;;6.17;3.43;;;10.00;99.90;;;10.50;100.00;98749.91;5023169;28;20457;-80
2022/10/04 10:25:08;;;;;;;4.50;3.37;;;10.10;99.90;;;10.58;100.00;98749.06;5022482;28;20457;-80
2022/10/04 10:28:30;;;;;;;7.73;3.77;;;10.20;99.90;;;10.66;100.00;98745.56;5023322;28;20988;-80
2022/10/04 10:31:30;;;;;;;11.30;3.83;;;10.30;99.90;;;10.76;100.00;98748.81;5022104;28;20473;-81
2022/10/04 10:34:47;;;;;;;12.33;3.93;;;10.40;99.90;;;10.84;100.00;98743.53;5026254;28;20502;-80
2022/10/04 10:37:34;;;;;;;8.23;3.73;;;10.40;99.90;;;10.89;100.00;98752.50;5024601;28;20478;-81
2022/10/04 10:40:43;;;;;;;7.17;4.03;;;10.50;99.90;;;10.98;100.00;98759.31;5023611;28;20515;-80
2022/10/04 10:43:36;;;;;;;5.60;3.60;;;10.60;99.90;;;11.04;100.00;98756.00;5024256;28;20462;-80
2022/10/04 10:46:53;;;;;;;6.13;3.70;;;10.70;99.90;;;11.14;100.00;98758.44;5022594;28;20457;-81
2022/10/04 10:49:44;;;;;;;4.20;3.37;;;10.80;99.90;;;11.24;100.00;98751.16;5023526;28;20556;-80
2022/10/04 10:52:59;;;;;;;15.70;3.87;;;10.90;99.90;;;11.36;100.00;98747.16;5024918;28;20544;-80
2022/10/04 10:56:18;;;;;;;8.27;3.97;;;11.10;99.90;;;11.42;100.00;98750.88;5026604;28;20458;-81
2022/10/04 10:59:35;;;;;;;9.87;3.93;;;11.10;99.90;;;11.49;100.00;98749.97;4992531;28;20962;-81
2022/10/04 11:02:43;;;;;;;7.53;3.40;;;11.20;99.90;;;11.57;100.00;98742.06;5027119;28;20583;-81
2022/10/04 11:06:12;;;;;;;7.20;3.30;;;11.30;99.90;;;11.68;100.00;98742.66;5028102;28;20445;-81
2022/10/04 11:09:29;;;;;;;4.33;3.50;;;11.40;99.90;;;11.74;100.00;98742.78;5003357;28;20588;-80
2022/10/04 11:12:38;;;;;;;11.27;3.57;;;11.50;99.90;;;11.81;100.00;98743.69;5027371;28;20985;-80
2022/10/04 11:16:18;;;;;;;5.97;3.57;;;11.50;99.90;;;11.89;100.00;98737.56;5027307;28;20926;-80
2022/10/04 11:19:31;;;;;;;4.43;3.17;;;11.60;99.90;;;11.96;100.00;98728.84;5026322;28;21421;-80
2022/10/04 11:23:00;;;;;;;8.70;3.40;;;11.70;99.90;;;12.05;100.00;98729.53;5025050;28;20508;-80
2022/10/04 11:26:36;;;;;;;12.30;3.00;;;11.80;99.90;;;12.15;100.00;98719.59;5026623;28;20450;-80
2022/10/04 11:29:27;;;;;;;6.57;3.90;;;11.90;99.90;;;12.26;100.00;98719.16;5025232;28;20547;-81
2022/10/04 11:35:53;;;;;;;6.37;2.87;;;12.10;99.90;;;12.53;100.00;98701.94;5074205;28;21045;-81
2022/10/04 11:38:47;;;;;;;4.90;2.87;;;12.30;99.90;;;12.62;100.00;98695.63;5075751;28;20471;-81
2022/10/04 11:41:29;;;;;;;4.80;2.80;;;12.40;99.90;;;12.71;100.00;98677.94;5076819;28;20513;-82
2022/10/04 11:45:04;;;;;;;3.13;2.57;;;12.50;99.90;;;12.87;100.00;98667.25;5078463;28;20783;-82
2022/10/04 11:47:49;;;;;;;6.83;2.93;;;12.70;99.90;;;12.96;100.00;98660.88;5071855;28;20539;-82
2022/10/04 11:50:50;;;;;;;5.03;3.43;;;12.80;99.90;;;13.12;100.00;98655.38;5076847;28;20988;-82
2022/10/04 11:53:57;;;;;;;3.67;2.70;;;13.00;99.90;;;13.23;100.00;98647.00;5077399;28;20487;-82
2022/10/04 11:56:55;;;;;;;3.87;2.33;;;13.10;99.90;;;13.32;100.00;98645.91;5077022;28;20466;-82
2022/10/04 11:59:45;;;;;;;3.10;1.93;;;13.20;99.90;;;13.41;100.00;98644.75;5078030;28;20543;-82
2022/10/04 12:03:21;;;;;;;3.90;2.47;;;13.30;99.90;;;13.63;100.00;98642.09;5077760;28;21315;-82
2022/10/04 12:06:15;;;;;;;3.13;1.87;;;13.50;99.90;;;13.72;100.00;98640.91;5045755;28;20566;-82